sensor_id;sensor_type;location;lat;lon;timestamp;temperature;humidity
7562;DHT22;3822;48.784;9.174;2022-07-29T00:01:32;24.70;74.00
7562;DHT22;3822;48.784;9.174;2022-07-29T00:03:59;24.60;74.20
7562;DHT22;3822;48.784;9.174;2022-07-29T00:06:25;24.60;74.50
7562;DHT22;3822;48.784;9.174;2022-07-29T00:08:52;24.50;74.70
7562;DHT22;3822;48.784;9.174;2022-07-29T00:11:18;24.50;75.00
7562;DHT22;3822;48.784;9.174;2022-07-29T00:13:45;24.50;75.30
7562;DHT22;3822;48.784;9.174;2022-07-29T00:16:11;24.50;75.50
7562;DHT22;3822;48.784;9.174;2022-07-29T00:18:38;24.50;75.70
7562;DHT22;3822;48.784;9.174;2022-07-29T00:21:05;24.50;75.90
7562;DHT22;3822;48.784;9.174;2022-07-29T00:23:31;24.50;76.00
7562;DHT22;3822;48.784;9.174;2022-07-29T00:25:58;24.50;76.40
7562;DHT22;3822;48.784;9.174;2022-07-29T00:28:24;24.40;76.50
7562;DHT22;3822;48.784;9.174;2022-07-29T00:30:51;24.40;76.90
7562;DHT22;3822;48.784;9.174;2022-07-29T00:33:17;24.40;77.20
7562;DHT22;3822;48.784;9.174;2022-07-29T00:35:44;24.40;77.50
7562;DHT22;3822;48.784;9.174;2022-07-29T00:38:15;24.30;77.70
7562;DHT22;3822;48.784;9.174;2022-07-29T00:40:43;24.30;78.00
7562;DHT22;3822;48.784;9.174;2022-07-29T00:43:11;24.30;78.20
7562;DHT22;3822;48.784;9.174;2022-07-29T00:45:43;24.30;78.50
7562;DHT22;3822;48.784;9.174;2022-07-29T00:48:09;24.30;78.80
7562;DHT22;3822;48.784;9.174;2022-07-29T00:50:37;24.20;79.00
7562;DHT22;3822;48.784;9.174;2022-07-29T00:53:06;24.20;79.30
7562;DHT22;3822;48.784;9.174;2022-07-29T00:55:33;24.20;79.60
7562;DHT22;3822;48.784;9.174;2022-07-29T00:58:00;24.20;79.70
7562;DHT22;3822;48.784;9.174;2022-07-29T01:00:28;24.20;79.80
7562;DHT22;3822;48.784;9.174;2022-07-29T01:02:55;24.20;80.20
7562;DHT22;3822;48.784;9.174;2022-07-29T01:05:24;24.10;80.30
7562;DHT22;3822;48.784;9.174;2022-07-29T01:07:53;24.10;80.70
7562;DHT22;3822;48.784;9.174;2022-07-29T01:10:21;24.10;80.90
7562;DHT22;3822;48.784;9.174;2022-07-29T01:12:49;24.00;81.10
7562;DHT22;3822;48.784;9.174;2022-07-29T01:15:16;24.00;81.40
7562;DHT22;3822;48.784;9.174;2022-07-29T01:17:50;24.00;81.50
7562;DHT22;3822;48.784;9.174;2022-07-29T01:31:58;23.70;82.40
7562;DHT22;3822;48.784;9.174;2022-07-29T01:40:19;23.70;82.70
7562;DHT22;3822;48.784;9.174;2022-07-29T01:43:29;23.70;82.90
7562;DHT22;3822;48.784;9.174;2022-07-29T01:46:11;23.60;83.00
7562;DHT22;3822;48.784;9.174;2022-07-29T01:48:47;23.60;83.30
7562;DHT22;3822;48.784;9.174;2022-07-29T01:51:32;23.50;83.30
7562;DHT22;3822;48.784;9.174;2022-07-29T01:57:01;23.50;83.70
7562;DHT22;3822;48.784;9.174;2022-07-29T01:59:31;23.50;83.90
7562;DHT22;3822;48.784;9.174;2022-07-29T02:02:00;23.50;84.00
7562;DHT22;3822;48.784;9.174;2022-07-29T02:04:29;23.40;84.10
7562;DHT22;3822;48.784;9.174;2022-07-29T02:07:01;23.50;84.20
7562;DHT22;3822;48.784;9.174;2022-07-29T02:09:35;23.50;84.40
7562;DHT22;3822;48.784;9.174;2022-07-29T02:12:03;23.40;84.50
7562;DHT22;3822;48.784;9.174;2022-07-29T02:14:36;23.40;84.60
7562;DHT22;3822;48.784;9.174;2022-07-29T02:17:03;23.40;84.60
7562;DHT22;3822;48.784;9.174;2022-07-29T02:19:32;23.40;84.80
7562;DHT22;3822;48.784;9.174;2022-07-29T02:22:00;23.40;84.80
7562;DHT22;3822;48.784;9.174;2022-07-29T02:24:28;23.40;84.70
7562;DHT22;3822;48.784;9.174;2022-07-29T02:26:56;23.40;84.80
7562;DHT22;3822;48.784;9.174;2022-07-29T02:29:26;23.40;85.00
7562;DHT22;3822;48.784;9.174;2022-07-29T02:31:55;23.40;85.00
7562;DHT22;3822;48.784;9.174;2022-07-29T02:34:24;23.40;85.00
7562;DHT22;3822;48.784;9.174;2022-07-29T02:36:52;23.40;85.10
7562;DHT22;3822;48.784;9.174;2022-07-29T02:39:21;23.40;85.30
7562;DHT22;3822;48.784;9.174;2022-07-29T02:41:56;23.40;85.30
7562;DHT22;3822;48.784;9.174;2022-07-29T02:44:25;23.40;85.30
7562;DHT22;3822;48.784;9.174;2022-07-29T02:47:01;23.30;85.30
7562;DHT22;3822;48.784;9.174;2022-07-29T02:50:21;23.40;85.30
7562;DHT22;3822;48.784;9.174;2022-07-29T02:53:18;23.30;85.20
7562;DHT22;3822;48.784;9.174;2022-07-29T02:55:59;23.30;85.20
7562;DHT22;3822;48.784;9.174;2022-07-29T02:58:34;23.30;85.30
7562;DHT22;3822;48.784;9.174;2022-07-29T03:01:11;23.20;85.20
7562;DHT22;3822;48.784;9.174;2022-07-29T03:03:42;23.20;85.30
7562;DHT22;3822;48.784;9.174;2022-07-29T03:06:13;23.20;85.50
7562;DHT22;3822;48.784;9.174;2022-07-29T03:08:41;23.20;85.60
7562;DHT22;3822;48.784;9.174;2022-07-29T03:11:08;23.20;85.60
7562;DHT22;3822;48.784;9.174;2022-07-29T03:13:36;23.10;85.50
7562;DHT22;3822;48.784;9.174;2022-07-29T03:16:05;23.10;85.50
7562;DHT22;3822;48.784;9.174;2022-07-29T03:18:32;23.20;85.60
7562;DHT22;3822;48.784;9.174;2022-07-29T03:20:59;23.10;85.50
7562;DHT22;3822;48.784;9.174;2022-07-29T03:23:25;23.10;85.70
7562;DHT22;3822;48.784;9.174;2022-07-29T03:25:54;23.10;85.80
7562;DHT22;3822;48.784;9.174;2022-07-29T03:28:21;23.10;85.80
7562;DHT22;3822;48.784;9.174;2022-07-29T03:30:49;23.10;85.90
7562;DHT22;3822;48.784;9.174;2022-07-29T03:33:16;23.10;85.90
7562;DHT22;3822;48.784;9.174;2022-07-29T03:35:43;23.10;86.00
7562;DHT22;3822;48.784;9.174;2022-07-29T03:38:09;23.10;86.20
7562;DHT22;3822;48.784;9.174;2022-07-29T03:43:36;23.00;86.20
7562;DHT22;3822;48.784;9.174;2022-07-29T03:46:07;23.00;86.50
7562;DHT22;3822;48.784;9.174;2022-07-29T03:48:37;23.00;86.60
7562;DHT22;3822;48.784;9.174;2022-07-29T03:51:06;23.00;86.60
7562;DHT22;3822;48.784;9.174;2022-07-29T03:53:33;23.00;86.70
7562;DHT22;3822;48.784;9.174;2022-07-29T03:56:02;23.00;86.70
7562;DHT22;3822;48.784;9.174;2022-07-29T03:58:30;23.00;86.80
7562;DHT22;3822;48.784;9.174;2022-07-29T04:01:00;23.00;86.80
7562;DHT22;3822;48.784;9.174;2022-07-29T04:03:27;23.00;86.80
7562;DHT22;3822;48.784;9.174;2022-07-29T04:06:05;23.00;87.40
7562;DHT22;3822;48.784;9.174;2022-07-29T04:08:33;23.00;86.90
7562;DHT22;3822;48.784;9.174;2022-07-29T04:11:01;23.00;86.90
7562;DHT22;3822;48.784;9.174;2022-07-29T04:13:28;23.00;86.90
7562;DHT22;3822;48.784;9.174;2022-07-29T04:15:55;23.00;87.00
7562;DHT22;3822;48.784;9.174;2022-07-29T04:18:22;23.00;87.10
7562;DHT22;3822;48.784;9.174;2022-07-29T04:20:49;23.00;87.00
7562;DHT22;3822;48.784;9.174;2022-07-29T04:23:15;23.00;87.00
7562;DHT22;3822;48.784;9.174;2022-07-29T04:25:42;23.00;86.90
7562;DHT22;3822;48.784;9.174;2022-07-29T04:28:09;23.00;87.10
7562;DHT22;3822;48.784;9.174;2022-07-29T04:30:37;22.90;87.20
7562;DHT22;3822;48.784;9.174;2022-07-29T04:33:05;22.90;87.30
7562;DHT22;3822;48.784;9.174;2022-07-29T04:35:37;22.90;87.40
7562;DHT22;3822;48.784;9.174;2022-07-29T04:38:04;22.90;87.50
7562;DHT22;3822;48.784;9.174;2022-07-29T04:40:32;22.90;87.50
7562;DHT22;3822;48.784;9.174;2022-07-29T04:43:11;22.90;87.50
7562;DHT22;3822;48.784;9.174;2022-07-29T04:45:55;22.90;87.50
7562;DHT22;3822;48.784;9.174;2022-07-29T04:48:35;23.00;87.50
7562;DHT22;3822;48.784;9.174;2022-07-29T04:51:06;23.00;87.20
7562;DHT22;3822;48.784;9.174;2022-07-29T04:53:39;23.00;87.40
7562;DHT22;3822;48.784;9.174;2022-07-29T04:56:18;23.00;87.30
7562;DHT22;3822;48.784;9.174;2022-07-29T04:58:56;22.90;87.10
7562;DHT22;3822;48.784;9.174;2022-07-29T05:01:25;22.90;87.30
7562;DHT22;3822;48.784;9.174;2022-07-29T05:03:59;22.80;87.80
7562;DHT22;3822;48.784;9.174;2022-07-29T05:06:26;22.80;87.20
7562;DHT22;3822;48.784;9.174;2022-07-29T05:08:53;22.80;87.10
7562;DHT22;3822;48.784;9.174;2022-07-29T05:11:38;22.80;87.00
7562;DHT22;3822;48.784;9.174;2022-07-29T05:14:08;22.80;86.90
7562;DHT22;3822;48.784;9.174;2022-07-29T05:16:44;22.80;86.80
7562;DHT22;3822;48.784;9.174;2022-07-29T05:19:26;22.80;86.80
7562;DHT22;3822;48.784;9.174;2022-07-29T05:22:01;22.90;86.90
7562;DHT22;3822;48.784;9.174;2022-07-29T05:24:31;22.90;86.70
7562;DHT22;3822;48.784;9.174;2022-07-29T05:27:05;22.90;86.50
7562;DHT22;3822;48.784;9.174;2022-07-29T05:29:45;23.00;86.60
7562;DHT22;3822;48.784;9.174;2022-07-29T05:32:14;23.00;86.30
7562;DHT22;3822;48.784;9.174;2022-07-29T05:34:51;23.10;86.20
7562;DHT22;3822;48.784;9.174;2022-07-29T05:37:22;23.10;86.10
7562;DHT22;3822;48.784;9.174;2022-07-29T05:39:57;23.20;85.90
7562;DHT22;3822;48.784;9.174;2022-07-29T05:42:29;23.20;85.60
7562;DHT22;3822;48.784;9.174;2022-07-29T05:45:04;23.20;85.60
7562;DHT22;3822;48.784;9.174;2022-07-29T05:47:38;23.20;85.40
7562;DHT22;3822;48.784;9.174;2022-07-29T05:50:12;23.30;85.40
7562;DHT22;3822;48.784;9.174;2022-07-29T05:52:47;23.30;85.10
7562;DHT22;3822;48.784;9.174;2022-07-29T05:55:24;23.30;85.00
7562;DHT22;3822;48.784;9.174;2022-07-29T05:58:15;23.40;85.20
7562;DHT22;3822;48.784;9.174;2022-07-29T06:00:48;23.40;85.20
7562;DHT22;3822;48.784;9.174;2022-07-29T06:03:21;23.40;85.20
7562;DHT22;3822;48.784;9.174;2022-07-29T06:05:56;23.50;85.10
7562;DHT22;3822;48.784;9.174;2022-07-29T06:08:31;23.50;85.00
7562;DHT22;3822;48.784;9.174;2022-07-29T06:11:00;23.60;85.00
7562;DHT22;3822;48.784;9.174;2022-07-29T06:13:27;23.70;84.80
7562;DHT22;3822;48.784;9.174;2022-07-29T06:15:56;23.70;84.70
7562;DHT22;3822;48.784;9.174;2022-07-29T06:18:23;23.80;84.60
7562;DHT22;3822;48.784;9.174;2022-07-29T06:20:58;23.90;84.40
7562;DHT22;3822;48.784;9.174;2022-07-29T06:23:33;24.00;84.30
7562;DHT22;3822;48.784;9.174;2022-07-29T06:26:09;24.10;84.00
7562;DHT22;3822;48.784;9.174;2022-07-29T06:28:40;24.20;83.90
7562;DHT22;3822;48.784;9.174;2022-07-29T06:31:12;24.20;83.70
7562;DHT22;3822;48.784;9.174;2022-07-29T06:33:47;24.30;83.40
7562;DHT22;3822;48.784;9.174;2022-07-29T06:36:14;24.40;83.30
7562;DHT22;3822;48.784;9.174;2022-07-29T06:38:43;24.40;83.10
7562;DHT22;3822;48.784;9.174;2022-07-29T06:41:13;24.50;82.90
7562;DHT22;3822;48.784;9.174;2022-07-29T06:47:18;24.70;82.50
7562;DHT22;3822;48.784;9.174;2022-07-29T06:49:44;23.90;81.50
7562;DHT22;3822;48.784;9.174;2022-07-29T06:52:16;24.80;82.00
7562;DHT22;3822;48.784;9.174;2022-07-29T06:54:49;24.90;81.70
7562;DHT22;3822;48.784;9.174;2022-07-29T06:57:24;24.90;81.50
7562;DHT22;3822;48.784;9.174;2022-07-29T07:00:03;24.90;81.30
7562;DHT22;3822;48.784;9.174;2022-07-29T07:02:38;25.00;81.40
7562;DHT22;3822;48.784;9.174;2022-07-29T07:05:13;25.10;81.20
7562;DHT22;3822;48.784;9.174;2022-07-29T07:08:04;25.20;81.10
7562;DHT22;3822;48.784;9.174;2022-07-29T07:10:37;25.30;81.00
7562;DHT22;3822;48.784;9.174;2022-07-29T07:13:10;25.40;80.90
7562;DHT22;3822;48.784;9.174;2022-07-29T07:15:37;25.40;80.60
7562;DHT22;3822;48.784;9.174;2022-07-29T07:18:07;25.50;80.50
7562;DHT22;3822;48.784;9.174;2022-07-29T07:20:39;25.50;80.30
7562;DHT22;3822;48.784;9.174;2022-07-29T07:23:12;25.60;80.20
7562;DHT22;3822;48.784;9.174;2022-07-29T07:25:41;25.70;80.10
7562;DHT22;3822;48.784;9.174;2022-07-29T07:28:08;25.70;79.70
7562;DHT22;3822;48.784;9.174;2022-07-29T07:30:40;25.70;79.60
7562;DHT22;3822;48.784;9.174;2022-07-29T07:33:07;25.80;79.40
7562;DHT22;3822;48.784;9.174;2022-07-29T07:35:39;25.90;79.10
7562;DHT22;3822;48.784;9.174;2022-07-29T07:38:06;26.00;79.00
7562;DHT22;3822;48.784;9.174;2022-07-29T07:40:33;26.00;78.70
7562;DHT22;3822;48.784;9.174;2022-07-29T07:43:00;26.10;78.60
7562;DHT22;3822;48.784;9.174;2022-07-29T07:45:37;26.20;78.40
7562;DHT22;3822;48.784;9.174;2022-07-29T07:48:11;26.30;78.30
7562;DHT22;3822;48.784;9.174;2022-07-29T07:50:41;26.30;77.80
7562;DHT22;3822;48.784;9.174;2022-07-29T07:53:07;26.40;77.60
7562;DHT22;3822;48.784;9.174;2022-07-29T07:55:40;26.50;76.10
7562;DHT22;3822;48.784;9.174;2022-07-29T07:58:14;26.60;75.90
7562;DHT22;3822;48.784;9.174;2022-07-29T08:00:46;26.60;74.20
7562;DHT22;3822;48.784;9.174;2022-07-29T08:03:13;26.60;74.10
7562;DHT22;3822;48.784;9.174;2022-07-29T08:05:40;26.60;73.70
7562;DHT22;3822;48.784;9.174;2022-07-29T08:08:20;26.70;73.40
7562;DHT22;3822;48.784;9.174;2022-07-29T08:10:56;26.70;72.70
7562;DHT22;3822;48.784;9.174;2022-07-29T08:13:26;26.80;72.20
7562;DHT22;3822;48.784;9.174;2022-07-29T08:15:58;26.80;71.50
7562;DHT22;3822;48.784;9.174;2022-07-29T08:18:29;26.80;71.40
7562;DHT22;3822;48.784;9.174;2022-07-29T08:20:57;26.80;70.40
7562;DHT22;3822;48.784;9.174;2022-07-29T08:23:24;26.80;70.90
7562;DHT22;3822;48.784;9.174;2022-07-29T08:25:55;26.90;71.50
7562;DHT22;3822;48.784;9.174;2022-07-29T08:28:25;26.90;71.50
7562;DHT22;3822;48.784;9.174;2022-07-29T08:30:57;26.90;71.30
7562;DHT22;3822;48.784;9.174;2022-07-29T08:33:24;26.90;72.10
7562;DHT22;3822;48.784;9.174;2022-07-29T08:35:50;26.90;72.50
7562;DHT22;3822;48.784;9.174;2022-07-29T08:38:17;27.00;72.50
7562;DHT22;3822;48.784;9.174;2022-07-29T08:40:43;27.00;72.50
7562;DHT22;3822;48.784;9.174;2022-07-29T08:43:11;27.10;71.30
7562;DHT22;3822;48.784;9.174;2022-07-29T08:45:43;27.20;69.70
7562;DHT22;3822;48.784;9.174;2022-07-29T08:48:15;27.30;68.80
7562;DHT22;3822;48.784;9.174;2022-07-29T08:50:47;27.30;69.10
7562;DHT22;3822;48.784;9.174;2022-07-29T08:53:18;27.30;69.70
7562;DHT22;3822;48.784;9.174;2022-07-29T08:55:47;27.40;70.10
7562;DHT22;3822;48.784;9.174;2022-07-29T08:58:16;27.40;70.00
7562;DHT22;3822;48.784;9.174;2022-07-29T09:00:55;27.50;69.70
7562;DHT22;3822;48.784;9.174;2022-07-29T09:03:29;27.50;68.40
7562;DHT22;3822;48.784;9.174;2022-07-29T09:06:00;27.50;68.20
7562;DHT22;3822;48.784;9.174;2022-07-29T09:08:27;27.50;67.90
7562;DHT22;3822;48.784;9.174;2022-07-29T09:10:57;27.50;66.50
7562;DHT22;3822;48.784;9.174;2022-07-29T09:13:26;27.50;65.30
7562;DHT22;3822;48.784;9.174;2022-07-29T09:15:52;27.50;64.10
7562;DHT22;3822;48.784;9.174;2022-07-29T09:18:40;27.60;63.20
7562;DHT22;3822;48.784;9.174;2022-07-29T09:21:15;27.50;63.40
7562;DHT22;3822;48.784;9.174;2022-07-29T09:24:07;27.60;63.70
7562;DHT22;3822;48.784;9.174;2022-07-29T09:26:44;27.60;63.40
7562;DHT22;3822;48.784;9.174;2022-07-29T09:29:19;27.60;62.60
7562;DHT22;3822;48.784;9.174;2022-07-29T09:31:57;27.70;62.90
7562;DHT22;3822;48.784;9.174;2022-07-29T09:34:27;27.70;62.90
7562;DHT22;3822;48.784;9.174;2022-07-29T09:37:03;27.80;62.80
7562;DHT22;3822;48.784;9.174;2022-07-29T09:39:33;27.80;62.80
7562;DHT22;3822;48.784;9.174;2022-07-29T09:42:04;27.80;62.20
7562;DHT22;3822;48.784;9.174;2022-07-29T09:44:45;27.90;62.20
7562;DHT22;3822;48.784;9.174;2022-07-29T09:47:19;28.00;63.10
7562;DHT22;3822;48.784;9.174;2022-07-29T09:49:54;28.00;62.50
7562;DHT22;3822;48.784;9.174;2022-07-29T09:52:25;28.00;62.50
7562;DHT22;3822;48.784;9.174;2022-07-29T09:54:53;28.00;62.30
7562;DHT22;3822;48.784;9.174;2022-07-29T09:57:46;28.00;62.00
7562;DHT22;3822;48.784;9.174;2022-07-29T10:00:18;28.10;61.70
7562;DHT22;3822;48.784;9.174;2022-07-29T10:02:49;28.10;61.50
7562;DHT22;3822;48.784;9.174;2022-07-29T10:05:24;28.20;61.40
7562;DHT22;3822;48.784;9.174;2022-07-29T10:07:55;28.20;61.30
7562;DHT22;3822;48.784;9.174;2022-07-29T10:10:30;28.20;61.10
7562;DHT22;3822;48.784;9.174;2022-07-29T10:13:00;28.30;61.10
7562;DHT22;3822;48.784;9.174;2022-07-29T10:15:33;28.30;60.80
7562;DHT22;3822;48.784;9.174;2022-07-29T10:18:07;28.30;60.80
7562;DHT22;3822;48.784;9.174;2022-07-29T10:20:36;28.30;60.90
7562;DHT22;3822;48.784;9.174;2022-07-29T10:23:03;28.40;60.60
7562;DHT22;3822;48.784;9.174;2022-07-29T10:25:30;28.40;60.40
7562;DHT22;3822;48.784;9.174;2022-07-29T10:27:57;28.40;60.30
7562;DHT22;3822;48.784;9.174;2022-07-29T10:30:25;28.50;60.10
7562;DHT22;3822;48.784;9.174;2022-07-29T10:35:47;28.50;59.30
7562;DHT22;3822;48.784;9.174;2022-07-29T10:44:26;28.30;60.00
7562;DHT22;3822;48.784;9.174;2022-07-29T10:46:54;28.30;60.50
7562;DHT22;3822;48.784;9.174;2022-07-29T10:49:25;28.20;60.50
7562;DHT22;3822;48.784;9.174;2022-07-29T10:52:09;28.20;60.60
7562;DHT22;3822;48.784;9.174;2022-07-29T10:57:33;28.00;61.10
7562;DHT22;3822;48.784;9.174;2022-07-29T11:05:13;27.80;62.80
7562;DHT22;3822;48.784;9.174;2022-07-29T11:10:39;27.80;63.80
7562;DHT22;3822;48.784;9.174;2022-07-29T11:13:07;27.70;65.20
7562;DHT22;3822;48.784;9.174;2022-07-29T11:15:56;27.60;66.60
7562;DHT22;3822;48.784;9.174;2022-07-29T11:18:23;27.60;68.60
7562;DHT22;3822;48.784;9.174;2022-07-29T11:20:51;27.50;70.90
7562;DHT22;3822;48.784;9.174;2022-07-29T11:31:43;26.90;76.70
7562;DHT22;3822;48.784;9.174;2022-07-29T11:34:31;26.70;76.00
7562;DHT22;3822;48.784;9.174;2022-07-29T11:39:39;26.50;77.50
7562;DHT22;3822;48.784;9.174;2022-07-29T11:45:17;26.40;79.00
7562;DHT22;3822;48.784;9.174;2022-07-29T11:50:16;26.20;80.00
7562;DHT22;3822;48.784;9.174;2022-07-29T11:52:47;26.10;79.90
7562;DHT22;3822;48.784;9.174;2022-07-29T11:55:18;26.10;79.60
7562;DHT22;3822;48.784;9.174;2022-07-29T11:57:53;26.10;79.70
7562;DHT22;3822;48.784;9.174;2022-07-29T12:00:29;26.10;79.40
7562;DHT22;3822;48.784;9.174;2022-07-29T12:03:03;26.10;79.90
7562;DHT22;3822;48.784;9.174;2022-07-29T12:05:42;26.00;80.60
7562;DHT22;3822;48.784;9.174;2022-07-29T12:08:17;26.00;81.40
7562;DHT22;3822;48.784;9.174;2022-07-29T12:10:47;25.90;81.70
7562;DHT22;3822;48.784;9.174;2022-07-29T12:13:16;25.90;82.10
7562;DHT22;3822;48.784;9.174;2022-07-29T12:15:54;25.90;82.20
7562;DHT22;3822;48.784;9.174;2022-07-29T12:18:23;25.80;82.00
7562;DHT22;3822;48.784;9.174;2022-07-29T12:21:00;25.80;82.00
7562;DHT22;3822;48.784;9.174;2022-07-29T12:23:34;25.80;81.70
7562;DHT22;3822;48.784;9.174;2022-07-29T12:26:03;25.70;81.20
7562;DHT22;3822;48.784;9.174;2022-07-29T12:28:37;25.70;80.90
7562;DHT22;3822;48.784;9.174;2022-07-29T12:31:04;25.70;81.10
7562;DHT22;3822;48.784;9.174;2022-07-29T12:33:31;25.70;80.60
7562;DHT22;3822;48.784;9.174;2022-07-29T12:36:00;25.70;79.70
7562;DHT22;3822;48.784;9.174;2022-07-29T12:38:28;25.70;79.00
7562;DHT22;3822;48.784;9.174;2022-07-29T12:40:55;25.70;78.50
7562;DHT22;3822;48.784;9.174;2022-07-29T12:43:23;25.60;78.50
7562;DHT22;3822;48.784;9.174;2022-07-29T12:45:52;25.60;78.40
7562;DHT22;3822;48.784;9.174;2022-07-29T12:48:41;25.50;78.20
7562;DHT22;3822;48.784;9.174;2022-07-29T12:51:09;25.50;78.10
7562;DHT22;3822;48.784;9.174;2022-07-29T12:53:38;25.50;78.20
7562;DHT22;3822;48.784;9.174;2022-07-29T12:56:05;25.40;78.10
7562;DHT22;3822;48.784;9.174;2022-07-29T12:58:38;25.40;78.10
7562;DHT22;3822;48.784;9.174;2022-07-29T13:01:13;25.30;78.20
7562;DHT22;3822;48.784;9.174;2022-07-29T13:03:54;25.30;78.60
7562;DHT22;3822;48.784;9.174;2022-07-29T13:09:18;25.10;79.30
7562;DHT22;3822;48.784;9.174;2022-07-29T13:11:50;25.10;79.70
7562;DHT22;3822;48.784;9.174;2022-07-29T13:14:34;25.10;79.90
7562;DHT22;3822;48.784;9.174;2022-07-29T13:17:17;25.00;80.10
7562;DHT22;3822;48.784;9.174;2022-07-29T13:19:52;24.90;80.20
7562;DHT22;3822;48.784;9.174;2022-07-29T13:22:21;24.90;80.90
7562;DHT22;3822;48.784;9.174;2022-07-29T13:25:00;24.90;81.90
7562;DHT22;3822;48.784;9.174;2022-07-29T13:27:33;24.80;83.20
7562;DHT22;3822;48.784;9.174;2022-07-29T13:30:05;24.80;84.00
7562;DHT22;3822;48.784;9.174;2022-07-29T13:32:33;25.80;85.90
7562;DHT22;3822;48.784;9.174;2022-07-29T13:35:03;24.70;85.90
7562;DHT22;3822;48.784;9.174;2022-07-29T13:37:31;24.70;86.60
7562;DHT22;3822;48.784;9.174;2022-07-29T13:40:00;24.70;86.90
7562;DHT22;3822;48.784;9.174;2022-07-29T13:42:29;24.70;87.20
7562;DHT22;3822;48.784;9.174;2022-07-29T13:44:55;24.60;87.70
7562;DHT22;3822;48.784;9.174;2022-07-29T13:47:22;24.60;87.80
7562;DHT22;3822;48.784;9.174;2022-07-29T13:49:49;24.60;88.10
7562;DHT22;3822;48.784;9.174;2022-07-29T13:52:15;24.60;88.30
7562;DHT22;3822;48.784;9.174;2022-07-29T13:54:43;24.60;88.70
7562;DHT22;3822;48.784;9.174;2022-07-29T13:57:10;24.60;88.90
7562;DHT22;3822;48.784;9.174;2022-07-29T13:59:41;24.60;88.80
7562;DHT22;3822;48.784;9.174;2022-07-29T14:02:11;24.60;89.50
7562;DHT22;3822;48.784;9.174;2022-07-29T14:04:38;24.70;89.00
7562;DHT22;3822;48.784;9.174;2022-07-29T14:07:06;24.70;89.10
7562;DHT22;3822;48.784;9.174;2022-07-29T14:09:35;24.80;88.90
7562;DHT22;3822;48.784;9.174;2022-07-29T14:12:02;24.80;88.70
7562;DHT22;3822;48.784;9.174;2022-07-29T14:14:29;24.80;88.40
7562;DHT22;3822;48.784;9.174;2022-07-29T14:16:58;24.90;88.50
7562;DHT22;3822;48.784;9.174;2022-07-29T14:19:24;24.90;88.40
7562;DHT22;3822;48.784;9.174;2022-07-29T14:21:51;25.00;88.40
7562;DHT22;3822;48.784;9.174;2022-07-29T14:24:17;25.00;88.20
7562;DHT22;3822;48.784;9.174;2022-07-29T14:26:44;25.10;88.10
7562;DHT22;3822;48.784;9.174;2022-07-29T14:29:13;25.10;87.80
7562;DHT22;3822;48.784;9.174;2022-07-29T14:31:40;25.20;87.70
7562;DHT22;3822;48.784;9.174;2022-07-29T14:34:06;25.20;87.60
7562;DHT22;3822;48.784;9.174;2022-07-29T14:36:33;25.20;87.60
7562;DHT22;3822;48.784;9.174;2022-07-29T14:39:00;25.30;87.50
7562;DHT22;3822;48.784;9.174;2022-07-29T14:41:26;25.30;87.30
7562;DHT22;3822;48.784;9.174;2022-07-29T14:43:54;25.30;87.20
7562;DHT22;3822;48.784;9.174;2022-07-29T14:46:21;25.40;86.90
7562;DHT22;3822;48.784;9.174;2022-07-29T14:48:47;25.40;86.80
7562;DHT22;3822;48.784;9.174;2022-07-29T14:51:14;25.50;86.90
7562;DHT22;3822;48.784;9.174;2022-07-29T14:53:40;25.50;86.90
7562;DHT22;3822;48.784;9.174;2022-07-29T14:56:07;25.50;86.90
7562;DHT22;3822;48.784;9.174;2022-07-29T14:58:33;25.50;86.80
7562;DHT22;3822;48.784;9.174;2022-07-29T15:01:00;25.60;87.00
7562;DHT22;3822;48.784;9.174;2022-07-29T15:03:27;25.60;86.90
7562;DHT22;3822;48.784;9.174;2022-07-29T15:05:56;25.70;86.90
7562;DHT22;3822;48.784;9.174;2022-07-29T15:08:24;25.70;86.70
7562;DHT22;3822;48.784;9.174;2022-07-29T15:10:55;25.70;85.80
7562;DHT22;3822;48.784;9.174;2022-07-29T15:13:23;25.80;85.30
7562;DHT22;3822;48.784;9.174;2022-07-29T15:15:50;25.80;84.90
7562;DHT22;3822;48.784;9.174;2022-07-29T15:18:17;25.90;84.90
7562;DHT22;3822;48.784;9.174;2022-07-29T15:20:43;26.00;84.90
7562;DHT22;3822;48.784;9.174;2022-07-29T15:23:12;26.00;84.90
7562;DHT22;3822;48.784;9.174;2022-07-29T15:25:39;26.00;84.60
7562;DHT22;3822;48.784;9.174;2022-07-29T15:28:05;26.10;84.80
7562;DHT22;3822;48.784;9.174;2022-07-29T15:30:35;26.10;84.80
7562;DHT22;3822;48.784;9.174;2022-07-29T15:33:07;26.20;84.90
7562;DHT22;3822;48.784;9.174;2022-07-29T15:35:38;26.20;84.70
7562;DHT22;3822;48.784;9.174;2022-07-29T15:38:04;26.20;84.50
7562;DHT22;3822;48.784;9.174;2022-07-29T15:40:31;26.20;84.50
7562;DHT22;3822;48.784;9.174;2022-07-29T15:42:57;26.30;84.50
7562;DHT22;3822;48.784;9.174;2022-07-29T15:45:38;26.30;84.50
7562;DHT22;3822;48.784;9.174;2022-07-29T15:48:07;26.30;84.40
7562;DHT22;3822;48.784;9.174;2022-07-29T15:50:35;26.30;84.20
7562;DHT22;3822;48.784;9.174;2022-07-29T15:53:01;26.30;84.20
7562;DHT22;3822;48.784;9.174;2022-07-29T15:55:28;26.30;84.30
7562;DHT22;3822;48.784;9.174;2022-07-29T15:57:54;26.30;84.20
7562;DHT22;3822;48.784;9.174;2022-07-29T16:00:21;26.30;84.20
7562;DHT22;3822;48.784;9.174;2022-07-29T16:02:49;26.30;84.30
7562;DHT22;3822;48.784;9.174;2022-07-29T16:05:15;26.30;84.50
7562;DHT22;3822;48.784;9.174;2022-07-29T16:07:42;26.30;84.60
7562;DHT22;3822;48.784;9.174;2022-07-29T16:10:09;26.30;84.80
7562;DHT22;3822;48.784;9.174;2022-07-29T16:12:35;26.40;85.00
7562;DHT22;3822;48.784;9.174;2022-07-29T16:15:02;26.30;85.00
7562;DHT22;3822;48.784;9.174;2022-07-29T16:17:29;26.40;85.30
7562;DHT22;3822;48.784;9.174;2022-07-29T16:19:56;26.40;85.50
7562;DHT22;3822;48.784;9.174;2022-07-29T16:22:22;26.40;85.70
7562;DHT22;3822;48.784;9.174;2022-07-29T16:24:49;26.40;85.90
7562;DHT22;3822;48.784;9.174;2022-07-29T16:27:15;26.40;86.20
7562;DHT22;3822;48.784;9.174;2022-07-29T16:29:42;26.40;86.00
7562;DHT22;3822;48.784;9.174;2022-07-29T16:32:09;26.40;85.90
7562;DHT22;3822;48.784;9.174;2022-07-29T16:34:35;26.30;85.90
7562;DHT22;3822;48.784;9.174;2022-07-29T16:37:02;26.30;85.70
7562;DHT22;3822;48.784;9.174;2022-07-29T16:39:28;26.30;85.70
7562;DHT22;3822;48.784;9.174;2022-07-29T16:41:55;26.30;85.60
7562;DHT22;3822;48.784;9.174;2022-07-29T16:44:21;26.40;85.50
7562;DHT22;3822;48.784;9.174;2022-07-29T16:46:48;26.40;85.50
7562;DHT22;3822;48.784;9.174;2022-07-29T16:49:14;26.30;85.20
7562;DHT22;3822;48.784;9.174;2022-07-29T16:51:41;26.30;85.20
7562;DHT22;3822;48.784;9.174;2022-07-29T16:54:07;26.30;85.30
7562;DHT22;3822;48.784;9.174;2022-07-29T16:56:36;26.30;85.30
7562;DHT22;3822;48.784;9.174;2022-07-29T16:59:02;26.30;85.40
7562;DHT22;3822;48.784;9.174;2022-07-29T17:01:29;26.30;85.70
7562;DHT22;3822;48.784;9.174;2022-07-29T17:03:56;26.30;86.00
7562;DHT22;3822;48.784;9.174;2022-07-29T17:06:38;26.30;86.30
7562;DHT22;3822;48.784;9.174;2022-07-29T17:09:08;26.30;86.60
7562;DHT22;3822;48.784;9.174;2022-07-29T17:11:35;26.20;86.60
7562;DHT22;3822;48.784;9.174;2022-07-29T17:14:02;26.20;86.80
7562;DHT22;3822;48.784;9.174;2022-07-29T17:16:29;26.30;87.00
7562;DHT22;3822;48.784;9.174;2022-07-29T17:18:56;26.20;87.10
7562;DHT22;3822;48.784;9.174;2022-07-29T17:21:23;26.30;87.20
7562;DHT22;3822;48.784;9.174;2022-07-29T17:23:50;26.30;87.40
7562;DHT22;3822;48.784;9.174;2022-07-29T17:26:18;26.30;87.40
7562;DHT22;3822;48.784;9.174;2022-07-29T17:28:45;26.30;88.00
7562;DHT22;3822;48.784;9.174;2022-07-29T17:31:13;26.30;87.30